Weather History for KIBM - May, 2013

Change the Weather History Date:

Wednesday, May 1, 2013

  Actual Average (KSNY) Record (KSNY)
Temperature  
Mean Temperature 28 °F 53 °F  
Max Temperature 33 °F 67 °F 89 °F (1959)
Min Temperature 24 °F 39 °F 19 °F (1967)
Degree Days  
Heating Degree Days 36 12  
Month to date heating degree days 12  
Since 1 July heating degree days 5924  
Cooling Degree Days 0 0  
Month to date cooling degree days 0  
Year to date cooling degree days 1  
Moisture  
Dew Point 27 °F    
Average Humidity 91    
Maximum Humidity 99    
Minimum Humidity 84    
Precipitation  
Precipitation 0.13 in 0.10 in 0.99 in (1983)
Month to date precipitation 0.10  
Year to date precipitation 3.77  
Sea Level Pressure  
Sea Level Pressure 30.30 in    
Wind  
Wind Speed 13 mph (North)    
Max Wind Speed 21 mph    
Max Gust Speed 29 mph    
Visibility 3 miles    
Events Snow    
T = Trace of Precipitation, MM = Missing Value Source: NWS Daily Summary

Daily Weather History Graph

Daily Weather History Graph

Search for Another Location

Airport or City:

Trip Planner

Search our weather history database for the weather conditions in past years. The results will help you decide how hot, cold, wet, or windy it might be!

Date:

Astronomy

May. 01, 2013 Rise Set
Actual Time 6:51 AM CDT 8:52 PM CDT
Civil Twilight 6:22 AM CDT 9:22 PM CDT
Nautical Twilight 5:45 AM CDT 9:59 PM CDT
Astronomical Twilight 5:05 AM CDT 10:39 PM CDT
Moon 2:03 AM CDT (5/1) 12:33 PM CDT (5/1)
Length of Visible Light 15h 00m
Length of Day
14h 00m
Waning Gibbous, 59% of the Moon is Illuminated
May 1
Waning Gibbous
May 2
Last Quarter
May 9
New
May 17
First Quarter
May 24
Full

Hourly Weather History & Observations

Time (CDT) Temp. Windchill Dew Point Humidity Pressure Visibility Wind Dir Wind Speed Gust Speed Precip Events Conditions
12:15 AM 33.8 °F 25.3 °F 32.4 °F 94% 30.00 in 4.0 mi NNE 11.5 mph - N/A Snow Light Snow
12:35 AM 33.3 °F 25.1 °F 32.2 °F 96% 30.01 in 3.0 mi NNE 10.4 mph - N/A Snow Light Snow
12:55 AM 33.3 °F 25.7 °F 32.2 °F 96% 30.02 in 2.0 mi NNE 9.2 mph - N/A Snow Light Snow
1:15 AM 33.1 °F 25.5 °F 32.2 °F 96% 30.03 in 1.0 mi NNE 9.2 mph - N/A Snow Snow
1:35 AM 33.1 °F 24.4 °F 32.0 °F 96% 30.03 in 0.8 mi NNE 11.5 mph - N/A Snow Snow
1:55 AM 32.9 °F 24.1 °F 32.0 °F 96% 30.04 in 1.0 mi NNE 11.5 mph 18.4 mph N/A Snow Snow
2:15 AM 32.9 °F 23.2 °F 32.0 °F 96% 30.05 in 1.0 mi NNE 13.8 mph - N/A Snow Snow
2:35 AM 32.7 °F 23.4 °F 32.0 °F 97% 30.06 in 0.8 mi NNE 12.7 mph - N/A Snow Snow
2:55 AM 32.9 °F 24.7 °F 32.0 °F 96% 30.08 in 0.8 mi NNE 10.4 mph - N/A Snow Snow
3:15 AM 32.4 °F 23.0 °F 31.8 °F 98% 30.08 in 0.8 mi NNE 12.7 mph - N/A Snow Light Snow
3:35 AM 32.2 °F 25.0 °F 31.8 °F 99% 30.10 in 0.8 mi North 8.1 mph - N/A Snow Snow
4:15 AM 32.0 °F 24.2 °F 31.1 °F 96% 30.10 in 1.0 mi NNE 9.2 mph - N/A Snow Snow
4:35 AM 32.0 °F 23.0 °F 31.1 °F 96% 30.11 in 2.0 mi NE 11.5 mph - N/A Snow Light Snow
4:55 AM 32.0 °F 23.0 °F 31.1 °F 96% 30.13 in 2.5 mi NNE 11.5 mph - N/A Snow Light Snow
5:15 AM 32.0 °F 23.6 °F 31.1 °F 96% 30.15 in 1.5 mi NNE 10.4 mph - N/A Snow Light Snow
5:35 AM 32.0 °F 23.0 °F 31.1 °F 96% 30.14 in 2.0 mi NE 11.5 mph - N/A Snow Light Snow
6:15 AM 31.6 °F 21.6 °F 30.7 °F 96% 30.16 in 0.8 mi ENE 13.8 mph - N/A Snow Snow
6:35 AM 31.5 °F 19.4 °F 30.2 °F 95% 30.17 in 0.2 mi ENE 19.6 mph - N/A Snow Snow
6:55 AM 30.9 °F 18.7 °F 29.8 °F 96% 30.18 in 0.8 mi NE 19.6 mph - 0.03 in Snow Snow
7:15 AM 29.8 °F 18.4 °F 28.6 °F 95% 30.21 in 1.0 mi NE 16.1 mph - 0.04 in Snow Light Snow
7:35 AM 29.3 °F 16.6 °F 28.2 °F 96% 30.21 in 1.5 mi NE 19.6 mph - 0.08 in Snow Light Snow
7:55 AM 29.1 °F 17.1 °F 27.7 °F 94% 30.23 in 1.8 mi NE 17.3 mph - 0.09 in Snow Light Snow
8:15 AM 28.4 °F 15.1 °F 26.8 °F 94% 30.21 in 1.8 mi NE 20.7 mph 27.6 mph 0.01 in Snow Light Snow
8:35 AM 28.2 °F 15.9 °F 26.6 °F 94% 30.24 in 2.0 mi NE 17.3 mph - 0.01 in Snow Light Snow
8:55 AM 27.3 °F 13.6 °F 25.3 °F 92% 30.25 in 1.5 mi NNE 20.7 mph 28.8 mph 0.01 in Snow Light Snow
9:15 AM 27.1 °F 13.4 °F 25.3 °F 93% 30.26 in 1.2 mi NNE 20.7 mph - N/A Snow Light Snow
9:35 AM 27.1 °F 15.4 °F 25.2 °F 92% 30.28 in 1.0 mi NNE 15.0 mph - N/A Snow Light Snow
10:15 AM 27.3 °F 15.2 °F 24.8 °F 90% 30.29 in 0.8 mi NNE 16.1 mph - N/A Snow Light Snow
10:35 AM 27.5 °F 15.4 °F 24.8 °F 90% 30.30 in 1.0 mi North 16.1 mph - N/A Snow Light Snow
10:55 AM 27.5 °F 15.4 °F 24.6 °F 89% 30.30 in 0.8 mi NNE 16.1 mph - N/A Snow Light Snow
11:15 AM 27.5 °F 15.4 °F 24.8 °F 90% 30.31 in 0.8 mi North 16.1 mph - N/A Snow Light Snow
11:35 AM 28.0 °F 15.7 °F 24.8 °F 88% 30.32 in 1.0 mi NNE 17.3 mph 21.9 mph N/A Snow Light Snow
11:55 AM 28.2 °F 14.8 °F 24.6 °F 86% 30.33 in 1.0 mi NNE 20.7 mph 25.3 mph N/A Snow Light Snow
12:15 PM 27.5 °F 13.9 °F 23.7 °F 86% 30.34 in 1.0 mi NNE 20.7 mph - N/A Snow Light Snow
12:35 PM 27.3 °F 14.0 °F 23.0 °F 84% 30.35 in 0.8 mi NNE 19.6 mph - N/A Snow Light Snow
12:55 PM 27.3 °F 14.8 °F 23.4 °F 85% 30.35 in 0.8 mi NNE 17.3 mph - N/A Snow Light Snow
1:15 PM 27.5 °F 16.3 °F 23.7 °F 86% 30.36 in 1.2 mi North 13.8 mph - N/A Snow Light Snow
1:35 PM 27.7 °F 15.2 °F 23.5 °F 84% 30.36 in 1.0 mi NNE 17.3 mph - N/A Snow Light Snow
1:55 PM 28.2 °F 17.2 °F 24.1 °F 84% 30.36 in 1.2 mi North 13.8 mph - N/A Snow Light Snow
2:15 PM 28.8 °F 17.0 °F 24.8 °F 85% 30.37 in 1.5 mi North 16.1 mph - N/A Snow Light Snow
2:35 PM 28.8 °F 17.0 °F 24.8 °F 85% 30.38 in 1.0 mi North 16.1 mph - N/A Snow Light Snow
2:55 PM 28.9 °F 16.9 °F 25.0 °F 85% 30.39 in 1.5 mi North 17.3 mph - N/A Snow Light Snow
3:15 PM 28.2 °F 15.9 °F 24.4 °F 86% 30.39 in 1.2 mi North 17.3 mph - N/A Snow Light Snow
3:35 PM 28.4 °F 16.2 °F 24.3 °F 84% 30.40 in 1.5 mi North 17.3 mph - N/A Snow Light Snow
4:15 PM 28.4 °F 16.6 °F 24.6 °F 86% 30.41 in 1.2 mi North 16.1 mph - N/A Snow Light Snow
4:35 PM 28.2 °F 15.5 °F 24.1 °F 84% 30.41 in 1.5 mi North 18.4 mph - N/A Snow Light Snow
4:55 PM 28.2 °F 15.5 °F 24.6 °F 86% 30.42 in 1.5 mi North 18.4 mph 21.9 mph N/A Snow Light Snow
5:15 PM 28.2 °F 16.8 °F 24.8 °F 87% 30.42 in 1.0 mi North 15.0 mph - N/A Snow Light Snow
5:35 PM 28.4 °F 17.0 °F 25.3 °F 88% 30.44 in 0.8 mi North 15.0 mph - N/A Snow Light Snow
5:55 PM 28.8 °F 19.0 °F 25.5 °F 88% 30.45 in 1.2 mi North 11.5 mph - N/A Snow Light Snow
6:15 PM 28.8 °F 17.9 °F 25.2 °F 86% 30.45 in 3.0 mi North 13.8 mph - N/A   Overcast
6:35 PM 28.4 °F 17.5 °F 25.7 °F 90% 30.46 in 1.8 mi North 13.8 mph - N/A Snow Light Snow
6:55 PM 28.4 °F 18.0 °F 25.7 °F 90% 30.47 in 3.0 mi North 12.7 mph - N/A Snow Light Snow
7:15 PM 28.8 °F 20.2 °F 26.1 °F 90% 30.49 in 2.5 mi NNW 9.2 mph - N/A Snow Light Snow
7:35 PM 28.8 °F 19.0 °F 26.4 °F 91% 30.48 in 2.0 mi NNW 11.5 mph - N/A Snow Light Snow
7:55 PM 28.8 °F 20.2 °F 26.4 °F 91% 30.49 in 5.0 mi NNW 9.2 mph - N/A   Overcast
8:35 PM 28.2 °F 20.2 °F 25.7 °F 90% 30.49 in 10.0 mi NW 8.1 mph - N/A   Overcast
8:55 PM 27.5 °F 18.0 °F 25.3 °F 92% 30.50 in 10.0 mi NW 10.4 mph - N/A   Mostly Cloudy
9:35 PM 25.7 °F 15.7 °F 23.2 °F 90% 30.52 in 10.0 mi WNW 10.4 mph - N/A   Mostly Cloudy
9:55 PM 25.3 °F 15.3 °F 22.1 °F 87% 30.52 in 10.0 mi NW 10.4 mph - N/A   Overcast
10:15 PM 24.8 °F 14.0 °F 21.6 °F 87% 30.53 in 10.0 mi WNW 11.5 mph - N/A   Scattered Clouds
10:35 PM 24.8 °F 14.6 °F 21.2 °F 86% 30.53 in 10.0 mi WNW 10.4 mph - N/A   Clear
10:55 PM 24.4 °F 13.0 °F 20.8 °F 86% 30.54 in 10.0 mi WNW 12.7 mph - N/A   Clear
11:15 PM 24.3 °F 12.2 °F 20.3 °F 85% 30.54 in 10.0 mi WNW 13.8 mph - N/A   Clear
11:35 PM 24.8 °F 12.9 °F 21.0 °F 86% 30.54 in 10.0 mi WNW 13.8 mph - N/A   Mostly Cloudy
11:55 PM 24.8 °F 12.9 °F 20.8 °F 85% 30.54 in 10.0 mi WNW 13.8 mph - N/A   Scattered Clouds